Coeur d'Alene, ID

2:00 PM PST on February 26, 2017 (GMT -0800)
Coeur D'Alene | | Change Station

Elev 2316 ft 47.77 °N, 116.82 °W | Updated 4 minutes ago

Scattered Clouds
Scattered Clouds
31 °F
Feels Like 31 °F
N
0
Wind Variable Wind from North

Today
High -- | Low -- °F
--% Chance of Precip.
Yesterday
High -- | Low -- °F
Precip. -- in
Pressure 29.78 in
Visibility 10.0 miles
Clouds Scattered Clouds 3400 ft
Scattered Clouds 4200 ft
Dew Point 26 °F
Humidity 82%
Rainfall 0.01 in
Snow Depth Not available.
6:32 AM 5:27 PM
New Moon, 0% visible
METAR KCOE 262156Z AUTO 00000KT 10SM SCT034 SCT042 M01/M03 A2966 RMK AO2 UPE2058 SLP084 P0000 T10061033 FZRANO
Pressure 29.78 in
Visibility 10.0 miles
Clouds Scattered Clouds 3400 ft
Scattered Clouds 4200 ft
Dew Point 26 °F
Humidity 82%
Rainfall 0.01 in
Snow Depth Not available.
6:32 AM 5:27 PM
New Moon, 0% visible
METAR KCOE 262156Z AUTO 00000KT 10SM SCT034 SCT042 M01/M03 A2966 RMK AO2 UPE2058 SLP084 P0000 T10061033 FZRANO

Get Your Daily Forecast Email!

Thanks for signing up!

Be on the lookout for a verification email in your inbox.

You'll start receiving the daily forecast at 8 AM.

×

10-Day Weather Forecast

Almanac

Astronomy

Feb. 26, 2017 Rise Set
Actual Time
Civil Twilight
Nautical Twilight
Astronomical Twilight
Moon
Length of Visible Light
Length of Day
Tomorrow will be .
, % of the Moon is Illuminated

Today's Extremes

State Highs State Lows

Community

WunderPhotos

Upload Photos

1,962,540 photos uploaded!

WunderBlog® & News

Nearby

Air Quality

  Air Quality AQ Index Pollutant
Not available.

Snow Depth

Station Depth Elevation

Earthquake Activity

City Distance Mag. Time & Date
Minimum magnitude displayed is 2.5.

Coastal Water Temperatures

Place Temperature

Stations

Nearby Weather Stations

Station Location Temp. Windchill Dew Point Humidity Wind Precip. Elev Updated Type
                   

Watches & Warnings

There are currently no watches in effect.